Time;durP1;ratioP1;P1;durP2;ratioP2;P2;SDS_P1;SDS_P2;PMS_P1;PMS_P2;Temp;Humidity;BMP_temperature;BMP_pressure;BME280_temperature;BME280_humidity;BME280_pressure;Samples;Min_cycle;Max_cycle;Signal;HPM_P1;HPM_P2
2022/10/02 00:02:24;;;;;;;10.02;3.13;;;;;;;10.70;100.00;100294.25;4909104;29;20498;-73
2022/10/02 00:04:56;;;;;;;7.85;3.53;;;;;;;10.63;100.00;100292.53;4910979;29;20455;-73
2022/10/02 00:07:29;;;;;;;7.75;3.58;;;;;;;10.58;100.00;100289.06;4908812;29;20036;-73
2022/10/02 00:10:02;;;;;;;6.95;3.67;;;;;;;10.55;100.00;100297.03;4911905;29;20107;-73
2022/10/02 00:12:28;;;;;;;;;;;;;;;10.45;100.00;100294.50;4909479;29;20036;-73
2022/10/02 00:15:01;;;;;;;5.68;3.15;;;;;;;10.39;100.00;100310.38;4907687;29;19963;-73
2022/10/02 00:17:33;;;;;;;;;;;;;;;10.36;100.00;100310.41;4910857;29;20032;-73
2022/10/02 00:19:59;;;;;;;6.65;3.65;;;;;;;10.29;100.00;100313.97;4911289;29;19958;-72
2022/10/02 00:22:40;;;;;;;4.55;3.50;;;;;;;10.27;100.00;100315.69;4908897;29;20841;-73
2022/10/02 00:25:22;;;;;;;5.55;3.53;;;;;;;10.23;100.00;100314.00;4913186;29;20058;-72
2022/10/02 00:28:21;;;;;;;8.25;3.67;;;;;;;10.24;100.00;100318.38;4908685;29;20452;-73
2022/10/02 00:30:52;;;;;;;11.50;4.15;;;;;;;10.20;100.00;100320.16;4909962;29;20062;-72
2022/10/02 00:33:41;;;;;;;8.20;3.58;;;;;;;10.26;100.00;100316.59;4914666;29;20048;-72
2022/10/02 00:36:24;;;;;;;9.43;3.40;;;;;;;10.22;100.00;100328.09;4909150;29;20072;-73
2022/10/02 00:39:00;;;;;;;8.00;3.55;;;;;;;10.26;100.00;100330.66;4915473;29;20064;-73
2022/10/02 00:41:54;;;;;;;10.10;3.50;;;;;;;10.22;100.00;100318.41;4910734;29;20487;-72
2022/10/02 00:44:44;;;;;;;5.47;4.10;;;;;;;10.26;100.00;100319.25;4911449;29;20617;-72
2022/10/02 00:47:33;;;;;;;4.70;3.67;;;;;;;10.29;100.00;100327.16;4921876;29;20040;-73
2022/10/02 00:50:25;;;;;;;7.45;4.22;;;;;;;10.30;100.00;100332.44;4910710;29;20513;-72
2022/10/02 00:53:25;;;;;;;4.55;3.95;;;;;;;10.33;100.00;100331.53;4909539;29;20039;-72
2022/10/02 00:56:19;;;;;;;7.90;3.67;;;;;;;10.31;100.00;100325.38;4908940;29;20048;-73
2022/10/02 00:58:58;;;;;;;4.75;3.75;;;;;;;10.34;100.00;100327.13;4910266;29;20040;-73
2022/10/02 01:01:40;;;;;;;8.50;4.55;;;;;;;10.36;100.00;100326.22;4923976;29;20123;-74
2022/10/02 01:04:12;;;;;;;10.27;4.25;;;;;;;10.37;100.00;100330.59;4909608;29;20115;-73
2022/10/02 01:06:37;;;;;;;7.20;4.10;;;;;;;10.36;100.00;100335.91;4911847;29;20044;-73
2022/10/02 01:09:03;;;;;;;6.72;4.32;;;;;;;10.38;100.00;100344.69;4907686;29;20447;-73
2022/10/02 01:11:29;;;;;;;6.85;3.80;;;;;;;10.34;100.00;100343.81;4909653;29;20044;-73
2022/10/02 01:13:55;;;;;;;7.38;3.53;;;;;;;10.28;100.00;100349.16;4913143;29;20046;-73
2022/10/02 01:16:21;;;;;;;8.43;3.97;;;;;;;10.30;100.00;100348.25;4908590;29;20036;-73
2022/10/02 01:18:46;;;;;;;6.40;4.28;;;;;;;10.31;100.00;100359.69;4909131;29;20051;-72
2022/10/02 01:21:28;;;;;;;9.48;4.22;;;;;;;10.38;100.00;100361.38;4909563;29;20039;-73
2022/10/02 01:24:01;;;;;;;6.43;3.80;;;;;;;10.34;100.00;100370.19;4908249;29;20518;-72
2022/10/02 01:26:26;;;;;;;6.90;4.30;;;;;;;10.34;100.00;100362.28;4908841;29;20044;-73
2022/10/02 01:28:52;;;;;;;6.03;4.00;;;;;;;10.36;100.00;100363.16;4913437;29;20039;-72
2022/10/02 01:31:18;;;;;;;8.18;4.32;;;;;;;10.40;100.00;100364.91;4908248;29;20127;-73
2022/10/02 01:33:48;;;;;;;9.20;3.95;;;;;;;10.38;100.00;100363.16;4907741;29;20215;-72
2022/10/02 01:36:15;;;;;;;7.22;4.50;;;;;;;10.38;100.00;100366.66;4908393;29;20051;-73
2022/10/02 01:38:41;;;;;;;13.50;3.55;;;;;;;10.41;100.00;100371.91;4911981;29;20036;-73
2022/10/02 01:41:10;;;;;;;9.05;3.70;;;;;;;10.39;100.00;100378.94;4920646;29;20076;-73
2022/10/02 01:43:38;;;;;;;9.68;4.28;;;;;;;10.35;100.00;100379.88;4911273;29;20039;-73
2022/10/02 01:46:25;;;;;;;8.02;4.10;;;;;;;10.31;100.00;100383.41;4907509;29;20414;-73
2022/10/02 01:48:57;;;;;;;8.43;4.35;;;;;;;10.28;100.00;100388.72;4909154;29;20083;-73
2022/10/02 01:51:54;;;;;;;8.13;4.03;;;;;;;10.27;100.00;100384.28;4909687;29;20044;-73
2022/10/02 01:54:26;;;;;;;8.50;4.25;;;;;;;10.25;100.00;100386.06;4913276;29;20063;-73
2022/10/02 01:57:00;;;;;;;8.77;4.30;;;;;;;10.20;100.00;100388.75;4905830;29;20055;-72
2022/10/02 01:59:36;;;;;;;10.50;3.78;;;;;;;10.18;100.00;100387.00;4910943;29;20047;-72
2022/10/02 02:02:33;;;;;;;4.93;3.45;;;;;;;10.18;100.00;100392.28;4907362;29;20039;-73
2022/10/02 02:05:33;;;;;;;12.52;4.07;;;;;;;10.16;100.00;100389.63;4908567;29;20124;-73
2022/10/02 02:08:17;;;;;;;6.47;3.45;;;;;;;10.12;100.00;100389.69;4910680;29;20036;-73
2022/10/02 02:10:58;;;;;;;9.57;4.07;;;;;;;10.08;100.00;100391.44;4905179;29;20104;-73
2022/10/02 02:13:30;;;;;;;5.88;3.78;;;;;;;10.09;100.00;100390.59;4908485;29;20048;-73
2022/10/02 02:16:12;;;;;;;10.48;4.45;;;;;;;10.06;100.00;100396.75;4906265;29;20047;-73
2022/10/02 02:18:52;;;;;;;9.55;4.15;;;;;;;10.06;100.00;100401.13;4911135;29;20032;-73
2022/10/02 02:21:23;;;;;;;8.45;4.13;;;;;;;10.06;100.00;100409.94;4907413;29;20056;-73
2022/10/02 02:23:50;;;;;;;15.60;4.28;;;;;;;10.05;100.00;100408.16;4910651;29;20071;-72
2022/10/02 02:26:18;;;;;;;7.05;3.80;;;;;;;10.06;100.00;100412.56;4906597;29;20033;-72
2022/10/02 02:28:51;;;;;;;9.93;4.78;;;;;;;10.10;100.00;100410.78;4907448;29;20112;-72
2022/10/02 02:31:21;;;;;;;8.93;3.95;;;;;;;10.13;100.00;100412.53;4906998;29;20068;-73
2022/10/02 02:33:52;;;;;;;10.82;4.07;;;;;;;10.11;100.00;100415.16;4912777;29;20118;-72
2022/10/02 02:36:23;;;;;;;11.32;4.38;;;;;;;10.11;100.00;100417.78;4921618;29;20514;-72
2022/10/02 02:38:59;;;;;;;10.80;4.10;;;;;;;10.08;100.00;100416.06;4922290;29;20518;-72
2022/10/02 02:41:27;;;;;;;5.72;4.43;;;;;;;10.01;100.00;100416.13;4905476;29;20119;-73
2022/10/02 02:44:01;;;;;;;10.65;4.45;;;;;;;9.95;100.00;100417.00;4907678;29;20399;-73
2022/10/02 02:47:02;;;;;;;9.07;4.35;;;;;;;9.93;100.00;100421.44;4910369;29;20483;-73
2022/10/02 02:49:20;;;;;;;11.85;4.47;;;;;;;9.90;100.00;100418.78;4911376;29;20807;-72
2022/10/02 02:51:47;;;;;;;14.77;4.40;;;;;;;9.88;100.00;100426.72;4906670;29;20044;-73
2022/10/02 02:54:18;;;;;;;13.20;4.30;;;;;;;9.89;100.00;100424.97;4905906;29;20045;-73
2022/10/02 02:56:46;;;;;;;9.52;4.47;;;;;;;9.88;100.00;100428.50;4908546;29;20032;-73
2022/10/02 02:59:13;;;;;;;9.10;3.95;;;;;;;9.84;100.00;100427.59;4909133;29;20061;-73
2022/10/02 03:01:40;;;;;;;10.60;4.20;;;;;;;9.82;100.00;100426.75;4910493;29;20381;-72
2022/10/02 03:04:05;;;;;;;14.10;4.63;;;;;;;9.80;100.00;100430.28;4913484;29;20040;-72
2022/10/02 03:06:41;;;;;;;7.60;3.90;;;;;;;9.81;100.00;100432.03;4909082;29;20421;-72
2022/10/02 03:09:11;;;;;;;10.65;4.10;;;;;;;9.78;100.00;100432.91;4910290;29;20053;-72
2022/10/02 03:11:49;;;;;;;8.13;4.68;;;;;;;9.79;100.00;100441.69;4912769;29;20040;-73
2022/10/02 03:14:42;;;;;;;9.30;4.47;;;;;;;9.77;100.00;100435.56;4913980;29;20045;-72
2022/10/02 03:17:16;;;;;;;10.13;4.22;;;;;;;9.74;100.00;100439.06;4908020;29;20123;-73
2022/10/02 03:20:15;;;;;;;9.85;3.90;;;;;;;9.75;100.00;100442.63;4916742;29;20036;-73
2022/10/02 03:23:14;;;;;;;8.68;4.72;;;;;;;9.74;100.00;100436.44;4913331;29;20088;-72
2022/10/02 03:26:05;;;;;;;11.23;4.30;;;;;;;9.73;100.00;100439.09;4910344;29;20487;-72
2022/10/02 03:28:44;;;;;;;8.15;4.00;;;;;;;9.75;100.00;100437.34;4907902;29;20040;-72
2022/10/02 03:31:12;;;;;;;9.93;4.53;;;;;;;9.78;100.00;100440.81;4909198;29;20503;-72
2022/10/02 03:33:38;;;;;;;11.50;4.20;;;;;;;9.80;100.00;100436.44;4913375;29;20036;-72
2022/10/02 03:36:04;;;;;;;14.30;4.93;;;;;;;9.79;100.00;100444.34;4912182;29;20037;-72
2022/10/02 03:38:31;;;;;;;10.85;4.47;;;;;;;9.79;100.00;100444.34;4914934;29;20398;-73
2022/10/02 03:40:59;;;;;;;12.48;4.70;;;;;;;9.81;100.00;100439.94;4914183;29;20032;-73
2022/10/02 03:43:28;;;;;;;8.98;4.38;;;;;;;9.79;100.00;100441.69;4915334;29;20127;-73
2022/10/02 03:45:54;;;;;;;9.25;4.40;;;;;;;9.80;100.00;100440.84;4911245;29;20066;-73
2022/10/02 03:48:19;;;;;;;8.13;3.85;;;;;;;9.80;100.00;100435.56;4916216;29;20562;-73
2022/10/02 03:50:45;;;;;;;7.88;3.92;;;;;;;9.85;100.00;100439.03;4909320;29;20045;-73
2022/10/02 03:53:21;;;;;;;8.45;4.28;;;;;;;9.93;100.00;100437.25;4914309;29;20067;-73
2022/10/02 03:55:56;;;;;;;12.57;4.40;;;;;;;10.07;100.00;100437.16;4909639;29;20398;-71
2022/10/02 03:58:24;;;;;;;11.45;4.18;;;;;;;10.18;100.00;100432.69;4912762;29;20032;-73
2022/10/02 04:01:04;;;;;;;6.47;3.97;;;;;;;10.31;100.00;100444.97;4908402;29;20036;-73
2022/10/02 04:03:37;;;;;;;14.25;4.32;;;;;;;10.43;100.00;100448.44;4911954;29;20058;-73
2022/10/02 04:06:08;;;;;;;10.95;4.35;;;;;;;10.52;100.00;100448.34;4907040;29;20123;-73
2022/10/02 04:08:38;;;;;;;8.93;4.13;;;;;;;10.62;100.00;100454.44;4915592;29;20099;-73
2022/10/02 04:11:29;;;;;;;8.38;3.83;;;;;;;10.71;100.00;100449.06;4908083;29;20503;-72
2022/10/02 04:14:01;;;;;;;12.32;4.45;;;;;;;10.80;100.00;100451.66;4911741;29;20052;-73
2022/10/02 04:16:35;;;;;;;14.88;4.25;;;;;;;10.86;100.00;100453.34;4910459;29;20038;-72
2022/10/02 04:19:05;;;;;;;8.77;4.22;;;;;;;10.94;100.00;100457.66;4909427;29;20084;-72
2022/10/02 04:21:42;;;;;;;11.05;4.25;;;;;;;10.98;100.00;100450.63;4908349;29;20040;-72
2022/10/02 04:24:32;;;;;;;10.98;4.57;;;;;;;11.02;100.00;100448.81;4913700;29;20123;-72
2022/10/02 04:27:10;;;;;;;8.35;3.85;;;;;;;11.09;100.00;100455.78;4907790;29;20419;-73
2022/10/02 04:29:42;;;;;;;8.85;4.20;;;;;;;11.14;100.00;100448.72;4910314;29;20048;-72
2022/10/02 04:32:14;;;;;;;8.48;4.28;;;;;;;11.07;100.00;100450.50;4909243;29;20048;-73
2022/10/02 04:34:40;;;;;;;6.65;4.38;;;;;;;10.99;100.00;100446.22;4911625;29;20130;-73
2022/10/02 04:37:31;;;;;;;5.50;4.00;;;;;;;10.90;100.00;100440.13;4906737;29;20165;-72
2022/10/02 04:40:11;;;;;;;10.10;4.43;;;;;;;10.89;100.00;100454.19;4910348;29;20039;-73
2022/10/02 04:42:54;;;;;;;11.15;4.63;;;;;;;10.92;100.00;100448.88;4916048;29;20099;-73
2022/10/02 04:45:33;;;;;;;10.25;4.82;;;;;;;10.88;100.00;100446.31;4908653;29;20529;-73
2022/10/02 04:48:12;;;;;;;8.18;4.55;;;;;;;10.81;100.00;100434.91;4911100;29;20103;-73
2022/10/02 04:51:04;;;;;;;10.20;4.15;;;;;;;10.77;100.00;100443.75;4905303;29;20028;-73
2022/10/02 04:53:57;;;;;;;14.87;4.67;;;;;;;10.73;100.00;100460.50;4908170;29;20114;-73
2022/10/02 04:56:49;;;;;;;8.00;4.15;;;;;;;10.80;100.00;100469.25;4909080;29;20052;-73
2022/10/02 04:59:39;;;;;;;12.63;4.23;;;;;;;10.91;100.00;100475.31;4913948;29;20036;-73
2022/10/02 05:02:07;;;;;;;9.45;4.18;;;;;;;10.94;100.00;100481.44;4910682;29;20295;-73
2022/10/02 05:04:51;;;;;;;9.45;4.18;;;;;;;11.03;100.00;100482.25;4913276;29;20403;-72
2022/10/02 05:07:44;;;;;;;7.95;4.35;;;;;;;11.09;99.88;100479.56;4906356;29;20585;-72
2022/10/02 05:10:49;;;;;;;7.38;4.20;;;;;;;11.10;100.00;100481.31;4912800;29;20036;-72
2022/10/02 05:13:53;;;;;;;8.55;4.20;;;;;;;11.01;100.00;100499.91;4910728;29;20124;-73
2022/10/02 05:16:38;;;;;;;9.25;4.53;;;;;;;10.88;100.00;100486.78;4908202;29;20032;-73
2022/10/02 05:19:35;;;;;;;14.85;4.60;;;;;;;10.81;100.00;100485.06;4910377;29;20048;-73
2022/10/02 05:22:23;;;;;;;9.93;4.78;;;;;;;10.77;100.00;100483.38;4910690;29;20024;-72
2022/10/02 05:25:18;;;;;;;12.00;4.35;;;;;;;10.77;100.00;100486.00;4910735;29;20115;-72
2022/10/02 05:28:27;;;;;;;10.50;3.97;;;;;;;10.82;100.00;100494.75;4909911;29;20127;-73
2022/10/02 05:31:12;;;;;;;8.20;3.65;;;;;;;10.86;100.00;100485.91;4908379;29;20043;-74
2022/10/02 05:34:04;;;;;;;9.13;4.45;;;;;;;10.89;100.00;100485.00;4912267;29;20040;-73
2022/10/02 05:36:48;;;;;;;9.95;4.70;;;;;;;10.82;100.00;100485.94;4911499;29;20040;-74
2022/10/02 05:39:24;;;;;;;9.23;4.63;;;;;;;10.77;100.00;100482.47;4911996;29;20059;-73
2022/10/02 05:42:04;;;;;;;6.35;4.15;;;;;;;10.68;100.00;100476.38;4908680;29;20513;-73
2022/10/02 05:44:36;;;;;;;14.38;4.53;;;;;;;10.66;100.00;100474.63;4908941;29;20047;-72
2022/10/02 05:47:08;;;;;;;;;;;;;;;10.62;100.00;100486.09;4905506;29;20589;-72
2022/10/02 05:49:37;;;;;;;10.88;4.68;;;;;;;10.57;100.00;100482.63;4912889;29;19927;-72
2022/10/02 05:52:15;;;;;;;10.13;4.10;;;;;;;10.55;100.00;100479.13;4907235;29;20435;-73
2022/10/02 05:55:15;;;;;;;12.93;4.88;;;;;;;10.59;100.00;100491.41;4908370;29;20044;-73
2022/10/02 05:57:46;;;;;;;12.73;4.93;;;;;;;10.71;100.00;100486.03;4910107;29;20091;-73
2022/10/02 06:00:30;;;;;;;12.38;5.10;;;;;;;10.78;100.00;100487.75;4913648;29;20064;-73
2022/10/02 06:03:10;;;;;;;9.40;4.30;;;;;;;10.91;100.00;100470.91;4906507;29;20059;-73
2022/10/02 06:05:54;;;;;;;11.02;4.57;;;;;;;11.03;100.00;100475.22;4905742;29;20071;-73
2022/10/02 06:08:29;;;;;;;9.98;4.68;;;;;;;11.06;100.00;100482.25;4911823;29;20048;-73
2022/10/02 06:10:59;;;;;;;14.88;4.90;;;;;;;11.07;100.00;100466.38;4906105;29;20554;-74
2022/10/02 06:13:34;;;;;;;12.02;4.72;;;;;;;11.06;100.00;100476.97;4910082;29;20059;-72
2022/10/02 06:16:24;;;;;;;9.20;4.32;;;;;;;11.08;100.00;100477.78;4903869;29;20111;-73
2022/10/02 06:18:58;;;;;;;8.50;5.10;;;;;;;11.03;100.00;100482.25;4906840;29;20060;-72
2022/10/02 06:21:34;;;;;;;6.95;4.40;;;;;;;11.03;100.00;100484.88;4921189;29;20036;-72
2022/10/02 06:24:11;;;;;;;12.57;5.03;;;;;;;11.05;100.00;100483.97;4905483;29;20036;-73
2022/10/02 06:26:38;;;;;;;8.20;4.53;;;;;;;11.07;100.00;100490.13;4901615;29;20048;-73
2022/10/02 06:29:10;;;;;;;8.77;5.07;;;;;;;11.11;100.00;100483.94;4902783;29;20041;-72
2022/10/02 06:32:03;;;;;;;9.10;4.80;;;;;;;11.16;100.00;100484.78;4909846;29;20044;-73
2022/10/02 06:34:29;;;;;;;9.52;5.38;;;;;;;11.25;100.00;100477.66;4907850;29;20510;-73
2022/10/02 06:37:17;;;;;;;10.77;5.00;;;;;;;11.33;100.00;100487.25;4906333;29;20048;-73
2022/10/02 06:40:11;;;;;;;8.25;4.32;;;;;;;11.41;100.00;100485.41;4907586;29;20052;-73
2022/10/02 06:43:00;;;;;;;15.23;4.90;;;;;;;11.53;99.35;100479.13;4904393;29;20085;-73
2022/10/02 06:45:57;;;;;;;18.10;5.07;;;;;;;11.63;98.57;100474.59;4907452;29;20055;-73
2022/10/02 06:48:53;;;;;;;11.23;5.05;;;;;;;11.75;98.41;100474.47;4908813;29;20046;-73
2022/10/02 06:51:45;;;;;;;10.23;4.82;;;;;;;11.81;97.47;100471.72;4905712;29;20455;-72
2022/10/02 06:54:40;;;;;;;14.50;4.93;;;;;;;11.94;97.32;100475.13;4919676;29;20036;-72
2022/10/02 06:57:20;;;;;;;14.38;5.13;;;;;;;12.03;96.63;100468.88;4903861;29;20041;-73
2022/10/02 07:00:11;;;;;;;10.10;4.95;;;;;;;12.12;95.96;100462.56;4907030;29;20502;-72
2022/10/02 07:02:48;;;;;;;9.07;4.90;;;;;;;12.20;95.83;100466.84;4909119;29;20047;-72
2022/10/02 07:05:46;;;;;;;11.73;4.95;;;;;;;12.31;94.88;100458.75;4923453;29;20064;-72
2022/10/02 07:08:36;;;;;;;9.45;4.63;;;;;;;12.40;94.48;100452.47;4905501;29;20728;-74
2022/10/02 07:11:13;;;;;;;9.13;5.05;;;;;;;12.46;94.76;100452.38;4904602;29;20127;-72
2022/10/02 07:13:56;;;;;;;10.27;5.07;;;;;;;12.55;94.18;100449.59;4908533;29;20040;-73
2022/10/02 07:16:41;;;;;;;11.32;5.28;;;;;;;12.62;92.84;100459.19;4909701;29;20519;-73
2022/10/02 07:19:37;;;;;;;10.43;4.90;;;;;;;12.78;93.10;100461.59;4909083;29;20487;-72
2022/10/02 07:22:13;;;;;;;10.32;5.32;;;;;;;12.83;92.68;100454.44;4904170;29;20041;-73
2022/10/02 07:25:01;;;;;;;10.15;5.38;;;;;;;13.02;92.00;100461.19;4910213;29;20036;-72
2022/10/02 07:27:50;;;;;;;9.57;5.00;;;;;;;13.12;91.03;100457.44;4907109;29;20046;-73
2022/10/02 07:30:17;;;;;;;14.77;5.57;;;;;;;13.30;91.04;100460.72;4907287;29;20125;-72
2022/10/02 07:33:01;;;;;;;12.52;9.25;;;;;;;13.40;89.42;100459.66;4910356;29;20044;-73
2022/10/02 07:35:55;;;;;;;13.10;4.97;;;;;;;13.56;88.54;100461.09;4923597;29;20040;-73
2022/10/02 07:38:45;;;;;;;8.55;4.93;;;;;;;13.62;86.98;100464.53;4907496;29;20052;-73
2022/10/02 07:41:31;;;;;;;12.05;4.97;;;;;;;13.73;87.73;100474.03;4907110;29;20055;-73
2022/10/02 07:44:13;;;;;;;9.02;5.22;;;;;;;13.75;86.38;100471.34;4907036;29;20095;-73
2022/10/02 07:47:17;;;;;;;10.98;6.20;;;;;;;13.87;86.43;100502.94;4903270;29;20107;-73
2022/10/02 07:50:06;;;;;;;8.73;5.15;;;;;;;13.98;84.85;100476.16;4910819;29;20056;-72
2022/10/02 07:53:01;;;;;;;7.15;5.78;;;;;;;14.11;84.50;100468.81;4911987;29;20104;-72
2022/10/02 07:55:26;;;;;;;15.65;5.70;;;;;;;14.20;83.36;100473.91;4913317;29;20051;-72
2022/10/02 07:58:08;;;;;;;14.65;5.95;;;;;;;14.34;83.82;100476.28;4913264;29;20040;-73
2022/10/02 08:00:44;;;;;;;10.77;5.78;;;;;;;14.43;81.93;100470.75;4906332;29;20068;-72
2022/10/02 08:03:36;;;;;;;14.02;6.18;;;;;;;14.50;80.43;100468.84;4913170;29;20044;-72
2022/10/02 08:06:04;;;;;;;10.55;6.35;;;;;;;14.63;80.82;100462.38;4914095;29;20050;-72
2022/10/02 08:08:38;;;;;;;13.85;6.07;;;;;;;14.72;80.68;100475.41;4913476;29;20055;-73
2022/10/02 08:11:20;;;;;;;9.18;5.97;;;;;;;14.84;82.22;100466.28;4921219;29;20036;-72
2022/10/02 08:14:06;;;;;;;13.48;7.30;;;;;;;15.00;80.74;100454.34;4915422;29;20043;-73
2022/10/02 08:16:39;;;;;;;10.10;6.13;;;;;;;15.10;78.86;100453.19;4910693;29;20063;-72
2022/10/02 08:19:07;;;;;;;;;;;;;;;15.21;77.86;100462.69;4914822;29;20062;-73
2022/10/02 08:21:45;;;;;;;8.82;6.00;;;;;;;15.40;77.68;100455.09;4911505;29;19978;-73
2022/10/02 08:24:19;;;;;;;8.70;5.25;;;;;;;15.42;76.89;100442.63;4909726;29;20048;-73
2022/10/02 08:27:08;;;;;;;10.48;5.28;;;;;;;15.38;77.21;100448.94;4907871;29;20028;-73
2022/10/02 08:29:52;;;;;;;10.57;5.30;;;;;;;15.19;78.27;100456.53;4912711;29;20043;-73
2022/10/02 08:32:17;;;;;;;12.90;6.72;;;;;;;15.17;78.20;100453.94;4908138;29;20523;-73
2022/10/02 08:34:43;;;;;;;10.43;7.82;;;;;;;15.29;78.21;100450.91;4908549;29;20052;-72
2022/10/02 08:37:24;;;;;;;11.85;6.72;;;;;;;15.58;77.04;100454.56;4910146;29;20055;-73
2022/10/02 08:40:02;;;;;;;13.05;6.80;;;;;;;15.70;76.34;100464.03;4910304;29;20035;-73
2022/10/02 08:42:55;;;;;;;11.98;6.13;;;;;;;15.69;76.05;100463.19;4908693;29;20067;-73
2022/10/02 08:45:56;;;;;;;12.27;6.00;;;;;;;15.67;75.38;100458.78;4914291;29;20047;-73
2022/10/02 08:49:08;;;;;;;11.70;6.25;;;;;;;15.91;75.27;100451.91;4911345;29;20081;-72
2022/10/02 08:52:11;;;;;;;9.90;5.60;;;;;;;16.02;75.67;100449.78;4911540;29;20155;-73
2022/10/02 08:54:54;;;;;;;10.32;6.10;;;;;;;16.06;75.32;100448.81;4912235;29;20376;-73
2022/10/02 08:57:42;;;;;;;9.10;6.03;;;;;;;16.05;73.63;100465.66;4907307;29;20095;-72
2022/10/02 09:00:13;;;;;;;9.30;5.68;;;;;;;15.82;74.27;100458.34;4908648;29;20048;-73
2022/10/02 09:03:00;;;;;;;11.98;5.47;;;;;;;15.83;74.81;100459.25;4909891;29;20475;-73
2022/10/02 09:06:10;;;;;;;16.40;6.45;;;;;;;15.78;75.79;100462.03;4911435;29;20044;-73
2022/10/02 09:09:02;;;;;;;9.02;5.68;;;;;;;15.85;75.81;100457.38;4909611;29;20487;-73
2022/10/02 09:11:34;;;;;;;9.70;6.05;;;;;;;15.92;75.84;100456.31;4911120;29;20040;-73
2022/10/02 09:14:33;;;;;;;8.32;5.47;;;;;;;15.99;75.12;100460.53;4906358;29;20447;-73
2022/10/02 09:17:34;;;;;;;9.73;6.13;;;;;;;16.05;75.38;100454.16;4907958;29;20047;-73
2022/10/02 09:20:46;;;;;;;10.82;6.22;;;;;;;15.98;74.54;100464.09;4924724;29;20033;-72
2022/10/02 09:23:40;;;;;;;13.38;5.88;;;;;;;15.92;76.39;100453.63;4908559;29;20040;-73
2022/10/02 09:26:18;;;;;;;11.68;6.03;;;;;;;15.86;75.94;100451.16;4909810;29;20488;-73
2022/10/02 09:29:18;;;;;;;18.48;6.40;;;;;;;15.82;76.01;100454.81;4907453;29;20506;-73
2022/10/02 09:32:16;;;;;;;13.18;7.63;;;;;;;16.00;75.59;100448.97;4907912;29;20071;-73
2022/10/02 09:35:07;;;;;;;9.35;5.72;;;;;;;16.33;74.51;100440.88;4911974;29;20494;-73
2022/10/02 09:38:04;;;;;;;12.98;6.68;;;;;;;16.39;74.11;100436.22;4906845;29;20055;-73
2022/10/02 09:40:44;;;;;;;8.90;6.68;;;;;;;16.52;73.27;100431.38;4912969;29;20047;-73
2022/10/02 09:43:34;;;;;;;14.80;6.55;;;;;;;16.65;72.77;100418.53;4912083;29;20040;-73
2022/10/02 09:46:25;;;;;;;16.65;7.25;;;;;;;16.75;71.26;100422.63;4905834;29;20498;-73
2022/10/02 09:49:12;;;;;;;16.17;7.13;;;;;;;16.66;69.78;100420.25;4928158;29;20051;-73
2022/10/02 09:52:14;;;;;;;10.85;7.47;;;;;;;16.70;70.39;100411.25;4905327;29;20036;-73
2022/10/02 09:55:20;;;;;;;10.07;5.88;;;;;;;16.86;69.98;100403.63;4907797;29;20051;-72
2022/10/02 09:58:28;;;;;;;8.30;6.15;;;;;;;16.96;69.97;100412.19;4912415;29;20036;-72
2022/10/02 10:01:26;;;;;;;9.85;6.22;;;;;;;17.21;70.68;100406.88;4907843;29;20414;-72
2022/10/02 10:04:29;;;;;;;9.38;5.50;;;;;;;17.26;70.86;100407.56;4911351;29;20479;-73
2022/10/02 10:07:21;;;;;;;;;;;;;;;17.05;70.05;100395.88;4905285;29;20124;-73
2022/10/02 10:09:58;;;;;;;;;;;;;;;17.00;68.92;100414.72;4908011;29;19919;-73
2022/10/02 10:12:29;;;;;;;;;;;;;;;16.86;67.30;100407.16;4911895;29;20411;-73
2022/10/02 10:15:09;;;;;;;;;;;;;;;16.81;68.57;100408.25;4910389;29;19961;-73
2022/10/02 10:17:56;;;;;;;;;;;;;;;16.63;68.57;100405.22;4905920;29;20325;-73
2022/10/02 10:20:36;;;;;;;;;;;;;;;16.63;69.68;100418.56;4913573;29;19915;-72
2022/10/02 10:23:20;;;;;;;;;;;;;;;16.59;67.91;100406.28;4922515;29;19915;-73
2022/10/02 10:26:04;;;;;;;;;;;;;;;16.64;69.36;100396.34;4908215;29;20329;-73
2022/10/02 10:28:38;;;;;;;;;;;;;;;16.81;70.00;100398.47;4910678;29;19919;-72
2022/10/02 10:31:16;;;;;;;;;;;;;;;16.77;69.74;100411.94;4911689;29;20071;-73
2022/10/02 10:34:12;;;;;;;;;;;;;;;16.95;68.89;100406.00;4906655;29;19915;-73
2022/10/02 10:39:45;;;;;;;;;;;;;;;17.38;68.28;100396.47;4910080;29;19922;-73
2022/10/02 10:42:25;;;;;;;;;;;;;;;17.36;66.55;100392.97;4905330;29;19916;-73
2022/10/02 10:44:58;;;;;;;;;;;;;;;17.49;65.46;100391.59;4909143;29;19919;-72
2022/10/02 10:47:29;;;;;;;;;;;;;;;17.64;65.15;100391.97;4907411;29;19926;-73
2022/10/02 10:50:02;;;;;;;;;;;;;;;17.61;64.27;100386.75;4909980;29;19919;-73
2022/10/02 10:52:36;;;;;;;;;;;;;;;17.44;63.26;100390.03;4910373;29;19915;-73
2022/10/02 10:55:32;;;;;;;;;;;;;;;17.68;62.95;100414.94;4908980;29;19923;-72
2022/10/02 10:58:01;;;;;;;;;;;;;;;17.91;62.81;100406.09;4905791;29;20293;-72
2022/10/02 11:00:29;;;;;;;;;;;;;;;18.03;63.70;100389.59;4909255;29;20408;-73
2022/10/02 11:02:58;;;;;;;;;;;;;;;18.10;64.04;100400.91;4907069;29;19922;-73
2022/10/02 11:05:52;;;;;;;;;;;;;;;17.85;62.98;100415.22;4922834;29;19919;-72
2022/10/02 11:08:42;;;;;;;;;;;;;;;17.80;64.17;100397.63;4913372;29;19999;-72
2022/10/02 11:11:30;;;;;;;;;;;;;;;18.07;64.71;100393.88;4899211;29;19926;-73
2022/10/02 11:14:20;;;;;;;;;;;;;;;18.09;62.21;100394.69;4904512;29;20302;-73
2022/10/02 11:16:57;;;;;;;;;;;;;;;17.98;61.65;100393.41;4908410;29;20444;-73
2022/10/02 11:19:39;;;;;;;;;;;;;;;17.94;63.48;100388.16;4909821;29;19926;-72
2022/10/02 11:22:21;;;;;;;;;;;;;;;18.26;63.44;100388.69;4919802;29;19916;-73
2022/10/02 11:24:59;;;;;;;;;;;;;;;18.13;62.06;100374.06;4914913;29;20053;-72
2022/10/02 11:27:34;;;;;;;;;;;;;;;17.88;62.34;100383.06;4906448;29;20138;-72
2022/10/02 11:30:20;;;;;;;;;;;;;;;17.69;62.89;100380.19;4911327;29;19919;-73
2022/10/02 11:33:01;;;;;;;;;;;;;;;17.60;63.92;100374.31;4912118;29;19919;-74
2022/10/02 11:35:35;;;;;;;;;;;;;;;17.62;61.16;100377.81;4908956;29;19922;-75
2022/10/02 11:38:13;;;;;;;;;;;;;;;17.72;60.45;100381.88;4926571;29;19946;-74
2022/10/02 11:40:44;;;;;;;;;;;;;;;17.60;62.10;100371.66;4913339;29;19915;-74
2022/10/02 11:43:21;;;;;;;;;;;;;;;17.89;60.59;100362.56;4912660;29;19975;-74
2022/10/02 11:46:01;;;;;;;;;;;;;;;17.96;60.79;100353.38;4908765;29;19915;-74
2022/10/02 11:48:33;;;;;;;;;;;;;;;18.09;60.14;100357.31;4913709;29;19973;-74
2022/10/02 11:51:09;;;;;;;;;;;;;;;18.15;60.32;100358.84;4911300;29;20401;-74
2022/10/02 11:53:43;;;;;;;;;;;;;;;18.69;60.54;100365.53;4913160;29;19965;-73
2022/10/02 11:56:21;;;;;;;;;;;;;;;19.15;58.41;100349.31;4911250;29;19962;-74
2022/10/02 11:58:46;;;;;;;;;;;;;;;18.96;58.02;100362.66;4910112;29;20022;-74
2022/10/02 12:01:21;;;;;;;;;;;;;;;18.31;59.00;100360.00;4909736;29;20005;-74
2022/10/02 12:04:04;;;;;;;;;;;;;;;18.52;60.78;100368.94;4916301;29;20572;-73
2022/10/02 12:06:40;;;;;;;;;;;;;;;18.65;58.87;100358.56;4909855;29;19922;-74
2022/10/02 12:09:23;;;;;;;;;;;;;;;19.40;58.11;100347.28;4909411;29;19923;-74
2022/10/02 12:12:00;;;;;;;;;;;;;;;19.26;57.39;100358.63;4912174;29;19915;-74
2022/10/02 12:14:51;;;;;;;;;;;;;;;19.25;58.09;100351.50;4911089;29;20305;-74
2022/10/02 12:17:36;;;;;;;;;;;;;;;19.03;56.75;100348.06;4908498;29;19948;-74
2022/10/02 12:28:55;;;;;;;;;;;;;;;17.59;62.44;100354.78;4909231;29;19975;-74
2022/10/02 12:31:29;;;;;;;;;;;;;;;17.40;63.92;100354.59;4911725;29;19915;-73
2022/10/02 12:34:02;;;;;;;;;;;;;;;17.13;63.89;100363.59;4913493;29;20282;-74
2022/10/02 12:36:45;;;;;;;;;;;;;;;16.52;66.21;100394.06;4910283;29;19922;-72
2022/10/02 12:39:15;;;;;;;;;;;;;;;15.29;75.01;100372.94;4912962;29;20290;-75
2022/10/02 12:41:59;;;;;;;;;;;;;;;14.55;78.17;100364.28;4909987;29;19915;-76
2022/10/02 12:44:43;;;;;;;;;;;;;;;14.10;81.62;100369.78;4921626;29;20001;-76
2022/10/02 12:47:14;;;;;;;;;;;;;;;13.81;85.46;100375.72;4908933;29;19922;-77
2022/10/02 12:49:53;;;;;;;;;;;;;;;13.46;91.59;100382.63;4916097;29;19974;-76